Kantner, PA (15548)

12:17 PM EDT on August 27, 2014 (GMT -0400)
Stoystown | Change Station
CLOSE
Current Station
Personal Weather Station
Location: Stoystown, PA
Elevation: 2172 ft
Nearby Weather Stations

Elev 2172 ft 40.11 °N, 78.94 °W | Updated 1 second ago

Clear
Clear
82.4 °F
Feels Like 80 °F
N
9.8
Wind Variable Wind from West
Gusts 9.8 mph

Today
High -- | Low -- °F
--% Chance of Precip.
Yesterday
High -- | Low -- °F
Precip. -- in
6:38 AM 7:55 PM
Waxing Crescent, 4% visible
Pressure 30.10 in
Visibility 10.0 miles
Clouds Clear
Heat Index 80 °F
Dew Point 36 °F
Humidity 19%
Rainfall 0.00 in
Snow Depth Not available.
UV 9 out of 12
Pollen 10.00 out of 12
Ozone Good
PM2.5 Moderate
Flu Activity Not available.
METAR KJST 271554Z AUTO 29007KT 260V340 10SM CLR 25/19 A3014 RMK AO2 SLP191 T02500189

More Conditions Fewer Conditions

Pressure 30.10 in
Visibility 10.0 miles
Clouds Clear
Heat Index 80 °F
Dew Point 36 °F
Humidity 19%
Rainfall 0.00 in
Snow Depth Not available.
UV 9 out of 12
Pollen 10.00 out of 12
Ozone Good
PM2.5 Moderate
Flu Activity Not available.
METAR KJST 271554Z AUTO 29007KT 260V340 10SM CLR 25/19 A3014 RMK AO2 SLP191 T02500189

More Conditions Fewer Conditions

10-Day Weather Forecast

Almanac

Astronomy

Aug. 27, 2014 Rise Set
Actual Time 6:38 AM EDT 7:55 PM EDT
Civil Twilight 6:10 AM EDT 8:23 PM EDT
Nautical Twilight 5:36 AM EDT 8:56 PM EDT
Astronomical Twilight 5:01 AM EDT 9:32 PM EDT
Moon 8:33 AM EDT 8:46 PM EDT
Length of Visible Light 14h 12m
Length of Day
13h 16m
Tomorrow will be 2m 29s shorter.
Waxing Crescent, 4% of the Moon is Illuminated
Today
Waxing Crescent
Sep 2
First Quarter
Sep 8
Full
Sep 15
Last Quarter
Sep 24
New

Today's Extremes

State Highs State Lows

Community

WunderPhotos

Upload Photos

1,747,721 photos uploaded!

Nearby

Air Quality

  Air Quality AQ Index Pollutant
Yesterday Moderate
OZONE
Yesterday Moderate
PM2.5
Current Moderate
PM2.5
Current Good
OZONE
Wednesday Moderate
OZONE
Wednesday Moderate
PM2.5
Thursday Good
PM2.5
Thursday Good
OZONE

Snow Depth

Station Depth Elevation
No new snow has been reported.

Earthquake Activity

City Distance Mag. Time & Date
No recent earthquake activity has been reported nearby.
Minimum magnitude displayed is 2.5.

Coastal Water Temperatures

Place Temperature
No Stations Reporting

Nearby Weather Stations